sensor_id;sensor_type;location;lat;lon;timestamp;P1;durP1;ratioP1;P2;durP2;ratioP2
16813;SDS011;8524;57.650;11.926;2023-06-26T00:00:27;4.30;;;3.90;;
16813;SDS011;8524;57.650;11.926;2023-06-26T00:02:54;4.07;;;3.63;;
16813;SDS011;8524;57.650;11.926;2023-06-26T00:05:21;3.97;;;3.67;;
16813;SDS011;8524;57.650;11.926;2023-06-26T00:07:48;3.80;;;3.50;;
16813;SDS011;8524;57.650;11.926;2023-06-26T00:10:15;4.50;;;4.10;;
16813;SDS011;8524;57.650;11.926;2023-06-26T00:12:44;4.27;;;3.87;;
16813;SDS011;8524;57.650;11.926;2023-06-26T00:15:11;3.90;;;3.60;;
16813;SDS011;8524;57.650;11.926;2023-06-26T00:17:38;3.80;;;3.50;;
16813;SDS011;8524;57.650;11.926;2023-06-26T00:20:05;4.37;;;3.97;;
16813;SDS011;8524;57.650;11.926;2023-06-26T00:22:33;4.10;;;3.80;;
16813;SDS011;8524;57.650;11.926;2023-06-26T00:25:00;3.97;;;3.53;;
16813;SDS011;8524;57.650;11.926;2023-06-26T00:27:27;4.10;;;3.70;;
16813;SDS011;8524;57.650;11.926;2023-06-26T00:29:55;3.77;;;3.47;;
16813;SDS011;8524;57.650;11.926;2023-06-26T00:32:22;4.43;;;4.03;;
16813;SDS011;8524;57.650;11.926;2023-06-26T00:34:49;4.77;;;4.30;;
16813;SDS011;8524;57.650;11.926;2023-06-26T00:37:18;4.17;;;3.87;;
16813;SDS011;8524;57.650;11.926;2023-06-26T00:39:46;4.50;;;4.20;;
16813;SDS011;8524;57.650;11.926;2023-06-26T00:42:13;4.80;;;4.40;;
16813;SDS011;8524;57.650;11.926;2023-06-26T00:44:40;4.10;;;3.80;;
16813;SDS011;8524;57.650;11.926;2023-06-26T00:47:09;4.70;;;4.30;;
16813;SDS011;8524;57.650;11.926;2023-06-26T00:49:38;3.90;;;3.60;;
16813;SDS011;8524;57.650;11.926;2023-06-26T00:52:05;4.32;;;4.03;;
16813;SDS011;8524;57.650;11.926;2023-06-26T00:54:32;4.40;;;4.07;;
16813;SDS011;8524;57.650;11.926;2023-06-26T00:57:00;4.40;;;4.00;;
16813;SDS011;8524;57.650;11.926;2023-06-26T00:59:27;4.57;;;4.23;;
16813;SDS011;8524;57.650;11.926;2023-06-26T01:01:54;4.00;;;3.70;;
16813;SDS011;8524;57.650;11.926;2023-06-26T01:04:22;3.97;;;3.63;;
16813;SDS011;8524;57.650;11.926;2023-06-26T01:06:55;4.67;;;4.27;;
16813;SDS011;8524;57.650;11.926;2023-06-26T01:09:22;4.40;;;4.00;;
16813;SDS011;8524;57.650;11.926;2023-06-26T01:11:50;4.70;;;4.27;;
16813;SDS011;8524;57.650;11.926;2023-06-26T01:14:17;4.87;;;4.47;;
16813;SDS011;8524;57.650;11.926;2023-06-26T01:16:44;4.90;;;3.90;;
16813;SDS011;8524;57.650;11.926;2023-06-26T01:19:13;4.10;;;3.80;;
16813;SDS011;8524;57.650;11.926;2023-06-26T01:21:51;3.87;;;3.57;;
16813;SDS011;8524;57.650;11.926;2023-06-26T01:24:24;5.30;;;4.90;;
16813;SDS011;8524;57.650;11.926;2023-06-26T01:26:59;4.53;;;4.22;;
16813;SDS011;8524;57.650;11.926;2023-06-26T01:29:28;3.93;;;3.63;;
16813;SDS011;8524;57.650;11.926;2023-06-26T01:31:57;4.30;;;3.90;;
16813;SDS011;8524;57.650;11.926;2023-06-26T01:34:25;3.70;;;3.40;;
16813;SDS011;8524;57.650;11.926;2023-06-26T01:36:53;4.47;;;4.00;;
16813;SDS011;8524;57.650;11.926;2023-06-26T01:39:20;4.57;;;4.27;;
16813;SDS011;8524;57.650;11.926;2023-06-26T01:41:47;4.10;;;3.80;;
16813;SDS011;8524;57.650;11.926;2023-06-26T01:44:18;4.13;;;3.83;;
16813;SDS011;8524;57.650;11.926;2023-06-26T01:46:59;4.50;;;4.20;;
16813;SDS011;8524;57.650;11.926;2023-06-26T01:49:40;4.20;;;3.90;;
16813;SDS011;8524;57.650;11.926;2023-06-26T01:52:14;4.50;;;4.20;;
16813;SDS011;8524;57.650;11.926;2023-06-26T01:54:49;4.30;;;4.00;;
16813;SDS011;8524;57.650;11.926;2023-06-26T01:57:20;4.10;;;3.80;;
16813;SDS011;8524;57.650;11.926;2023-06-26T01:59:51;3.97;;;3.67;;
16813;SDS011;8524;57.650;11.926;2023-06-26T02:02:20;3.80;;;3.50;;
16813;SDS011;8524;57.650;11.926;2023-06-26T02:04:50;3.57;;;3.33;;
16813;SDS011;8524;57.650;11.926;2023-06-26T02:07:17;4.07;;;3.77;;
16813;SDS011;8524;57.650;11.926;2023-06-26T02:09:44;5.10;;;4.70;;
16813;SDS011;8524;57.650;11.926;2023-06-26T02:12:11;7.97;;;7.20;;
16813;SDS011;8524;57.650;11.926;2023-06-26T02:14:38;6.93;;;6.30;;
16813;SDS011;8524;57.650;11.926;2023-06-26T02:17:07;7.20;;;6.30;;
16813;SDS011;8524;57.650;11.926;2023-06-26T02:19:34;6.37;;;5.77;;
16813;SDS011;8524;57.650;11.926;2023-06-26T02:22:01;6.60;;;6.00;;
16813;SDS011;8524;57.650;11.926;2023-06-26T02:24:28;6.80;;;6.20;;
16813;SDS011;8524;57.650;11.926;2023-06-26T02:26:55;6.05;;;5.55;;
16813;SDS011;8524;57.650;11.926;2023-06-26T02:29:23;6.00;;;5.40;;
16813;SDS011;8524;57.650;11.926;2023-06-26T02:31:49;5.67;;;5.17;;
16813;SDS011;8524;57.650;11.926;2023-06-26T02:34:18;5.40;;;4.90;;
16813;SDS011;8524;57.650;11.926;2023-06-26T02:36:45;5.50;;;5.00;;
16813;SDS011;8524;57.650;11.926;2023-06-26T02:39:12;5.67;;;5.17;;
16813;SDS011;8524;57.650;11.926;2023-06-26T02:41:39;5.53;;;5.03;;
16813;SDS011;8524;57.650;11.926;2023-06-26T02:44:06;4.90;;;4.40;;
16813;SDS011;8524;57.650;11.926;2023-06-26T02:46:33;6.03;;;5.43;;
16813;SDS011;8524;57.650;11.926;2023-06-26T02:49:00;5.43;;;5.03;;
16813;SDS011;8524;57.650;11.926;2023-06-26T02:51:28;5.33;;;4.83;;
16813;SDS011;8524;57.650;11.926;2023-06-26T02:53:55;5.18;;;4.72;;
16813;SDS011;8524;57.650;11.926;2023-06-26T02:56:22;4.90;;;4.50;;
16813;SDS011;8524;57.650;11.926;2023-06-26T02:58:49;4.80;;;4.40;;
16813;SDS011;8524;57.650;11.926;2023-06-26T03:01:16;5.20;;;4.80;;
16813;SDS011;8524;57.650;11.926;2023-06-26T03:03:45;5.13;;;4.70;;
16813;SDS011;8524;57.650;11.926;2023-06-26T03:06:13;4.53;;;4.23;;
16813;SDS011;8524;57.650;11.926;2023-06-26T03:08:41;5.17;;;4.67;;
16813;SDS011;8524;57.650;11.926;2023-06-26T03:11:08;5.20;;;4.70;;
16813;SDS011;8524;57.650;11.926;2023-06-26T03:13:36;4.97;;;4.57;;
16813;SDS011;8524;57.650;11.926;2023-06-26T03:16:03;4.95;;;4.55;;
16813;SDS011;8524;57.650;11.926;2023-06-26T03:18:31;4.87;;;4.47;;
16813;SDS011;8524;57.650;11.926;2023-06-26T03:20:58;5.43;;;4.93;;
16813;SDS011;8524;57.650;11.926;2023-06-26T03:23:25;4.80;;;4.40;;
16813;SDS011;8524;57.650;11.926;2023-06-26T03:25:54;4.97;;;4.50;;
16813;SDS011;8524;57.650;11.926;2023-06-26T03:28:21;5.67;;;5.13;;
16813;SDS011;8524;57.650;11.926;2023-06-26T03:30:48;5.10;;;4.67;;
16813;SDS011;8524;57.650;11.926;2023-06-26T03:33:15;5.30;;;4.87;;
16813;SDS011;8524;57.650;11.926;2023-06-26T03:35:42;5.07;;;4.57;;
16813;SDS011;8524;57.650;11.926;2023-06-26T03:38:09;5.50;;;5.00;;
16813;SDS011;8524;57.650;11.926;2023-06-26T03:40:36;5.33;;;4.83;;
16813;SDS011;8524;57.650;11.926;2023-06-26T03:43:04;4.40;;;4.10;;
16813;SDS011;8524;57.650;11.926;2023-06-26T03:45:31;5.03;;;4.63;;
16813;SDS011;8524;57.650;11.926;2023-06-26T03:47:58;4.50;;;4.13;;
16813;SDS011;8524;57.650;11.926;2023-06-26T03:50:25;4.60;;;4.20;;
16813;SDS011;8524;57.650;11.926;2023-06-26T03:52:52;5.93;;;5.37;;
16813;SDS011;8524;57.650;11.926;2023-06-26T03:55:19;4.37;;;4.00;;
16813;SDS011;8524;57.650;11.926;2023-06-26T03:57:49;4.97;;;4.57;;
16813;SDS011;8524;57.650;11.926;2023-06-26T04:00:18;4.50;;;4.10;;
16813;SDS011;8524;57.650;11.926;2023-06-26T04:02:45;4.60;;;4.20;;
16813;SDS011;8524;57.650;11.926;2023-06-26T04:05:12;4.60;;;4.23;;
16813;SDS011;8524;57.650;11.926;2023-06-26T04:07:39;4.50;;;4.10;;
16813;SDS011;8524;57.650;11.926;2023-06-26T04:10:07;5.17;;;4.67;;
16813;SDS011;8524;57.650;11.926;2023-06-26T04:12:34;4.50;;;4.20;;
16813;SDS011;8524;57.650;11.926;2023-06-26T04:15:01;4.67;;;4.33;;
16813;SDS011;8524;57.650;11.926;2023-06-26T04:17:30;4.83;;;4.43;;
16813;SDS011;8524;57.650;11.926;2023-06-26T04:19:57;4.90;;;4.33;;
16813;SDS011;8524;57.650;11.926;2023-06-26T04:22:24;4.53;;;4.13;;
16813;SDS011;8524;57.650;11.926;2023-06-26T04:24:51;5.07;;;4.63;;
16813;SDS011;8524;57.650;11.926;2023-06-26T04:27:18;4.40;;;4.10;;
16813;SDS011;8524;57.650;11.926;2023-06-26T04:29:45;4.33;;;4.03;;
16813;SDS011;8524;57.650;11.926;2023-06-26T04:32:12;4.13;;;3.83;;
16813;SDS011;8524;57.650;11.926;2023-06-26T04:34:40;4.55;;;4.15;;
16813;SDS011;8524;57.650;11.926;2023-06-26T04:37:09;4.77;;;4.37;;
16813;SDS011;8524;57.650;11.926;2023-06-26T04:39:36;4.43;;;4.10;;
16813;SDS011;8524;57.650;11.926;2023-06-26T04:42:04;4.23;;;3.93;;
16813;SDS011;8524;57.650;11.926;2023-06-26T04:44:32;4.90;;;4.50;;
16813;SDS011;8524;57.650;11.926;2023-06-26T04:46:59;4.87;;;4.37;;
16813;SDS011;8524;57.650;11.926;2023-06-26T04:49:26;4.20;;;3.80;;
16813;SDS011;8524;57.650;11.926;2023-06-26T04:51:56;4.47;;;4.17;;
16813;SDS011;8524;57.650;11.926;2023-06-26T04:54:25;4.10;;;3.80;;
16813;SDS011;8524;57.650;11.926;2023-06-26T04:56:52;4.53;;;4.13;;
16813;SDS011;8524;57.650;11.926;2023-06-26T04:59:19;4.47;;;4.07;;
16813;SDS011;8524;57.650;11.926;2023-06-26T05:01:46;4.83;;;4.13;;
16813;SDS011;8524;57.650;11.926;2023-06-26T05:04:14;4.13;;;3.73;;
16813;SDS011;8524;57.650;11.926;2023-06-26T05:06:41;4.18;;;3.88;;
16813;SDS011;8524;57.650;11.926;2023-06-26T05:09:09;4.30;;;3.90;;
16813;SDS011;8524;57.650;11.926;2023-06-26T05:11:37;4.00;;;3.60;;
16813;SDS011;8524;57.650;11.926;2023-06-26T05:14:04;4.22;;;3.83;;
16813;SDS011;8524;57.650;11.926;2023-06-26T05:16:32;4.20;;;3.63;;
16813;SDS011;8524;57.650;11.926;2023-06-26T05:19:00;3.77;;;3.47;;
16813;SDS011;8524;57.650;11.926;2023-06-26T05:21:27;3.33;;;3.13;;
16813;SDS011;8524;57.650;11.926;2023-06-26T05:23:56;5.27;;;3.90;;
16813;SDS011;8524;57.650;11.926;2023-06-26T05:26:26;4.03;;;3.63;;
16813;SDS011;8524;57.650;11.926;2023-06-26T05:28:54;4.50;;;4.10;;
16813;SDS011;8524;57.650;11.926;2023-06-26T05:31:21;3.67;;;3.37;;
16813;SDS011;8524;57.650;11.926;2023-06-26T05:33:48;3.53;;;3.23;;
16813;SDS011;8524;57.650;11.926;2023-06-26T05:36:16;4.32;;;3.90;;
16813;SDS011;8524;57.650;11.926;2023-06-26T05:38:46;4.43;;;3.23;;
16813;SDS011;8524;57.650;11.926;2023-06-26T05:41:15;4.13;;;3.60;;
16813;SDS011;8524;57.650;11.926;2023-06-26T05:43:43;3.43;;;3.13;;
16813;SDS011;8524;57.650;11.926;2023-06-26T05:46:10;4.13;;;3.10;;
16813;SDS011;8524;57.650;11.926;2023-06-26T05:48:37;3.33;;;3.03;;
16813;SDS011;8524;57.650;11.926;2023-06-26T05:51:05;3.37;;;3.07;;
16813;SDS011;8524;57.650;11.926;2023-06-26T05:53:32;2.97;;;2.77;;
16813;SDS011;8524;57.650;11.926;2023-06-26T05:56:00;3.47;;;3.20;;
16813;SDS011;8524;57.650;11.926;2023-06-26T05:58:27;3.13;;;2.80;;
16813;SDS011;8524;57.650;11.926;2023-06-26T06:00:56;3.03;;;2.83;;
16813;SDS011;8524;57.650;11.926;2023-06-26T06:03:23;3.10;;;2.80;;
16813;SDS011;8524;57.650;11.926;2023-06-26T06:05:50;2.93;;;2.73;;
16813;SDS011;8524;57.650;11.926;2023-06-26T06:08:17;2.93;;;2.23;;
16813;SDS011;8524;57.650;11.926;2023-06-26T06:10:44;2.40;;;2.20;;
16813;SDS011;8524;57.650;11.926;2023-06-26T06:13:11;2.57;;;2.37;;
16813;SDS011;8524;57.650;11.926;2023-06-26T06:15:38;2.47;;;2.17;;
16813;SDS011;8524;57.650;11.926;2023-06-26T06:18:07;2.63;;;2.43;;
16813;SDS011;8524;57.650;11.926;2023-06-26T06:20:34;2.73;;;2.40;;
16813;SDS011;8524;57.650;11.926;2023-06-26T06:23:01;2.70;;;2.50;;
16813;SDS011;8524;57.650;11.926;2023-06-26T06:25:28;2.63;;;2.43;;
16813;SDS011;8524;57.650;11.926;2023-06-26T06:27:55;2.90;;;2.63;;
16813;SDS011;8524;57.650;11.926;2023-06-26T06:30:22;2.53;;;2.33;;
16813;SDS011;8524;57.650;11.926;2023-06-26T06:32:49;2.40;;;2.20;;
16813;SDS011;8524;57.650;11.926;2023-06-26T06:35:19;2.40;;;2.20;;
16813;SDS011;8524;57.650;11.926;2023-06-26T06:37:46;3.65;;;2.30;;
16813;SDS011;8524;57.650;11.926;2023-06-26T06:40:14;2.20;;;2.10;;
16813;SDS011;8524;57.650;11.926;2023-06-26T06:42:41;2.10;;;1.92;;
16813;SDS011;8524;57.650;11.926;2023-06-26T06:45:08;2.35;;;2.15;;
16813;SDS011;8524;57.650;11.926;2023-06-26T06:47:36;2.47;;;2.38;;
16813;SDS011;8524;57.650;11.926;2023-06-26T06:50:03;2.22;;;1.95;;
16813;SDS011;8524;57.650;11.926;2023-06-26T06:52:36;1.92;;;1.80;;
16813;SDS011;8524;57.650;11.926;2023-06-26T06:55:04;2.08;;;1.98;;
16813;SDS011;8524;57.650;11.926;2023-06-26T06:57:33;1.95;;;1.85;;
16813;SDS011;8524;57.650;11.926;2023-06-26T07:00:02;2.15;;;1.70;;
16813;SDS011;8524;57.650;11.926;2023-06-26T07:02:30;2.45;;;1.88;;
16813;SDS011;8524;57.650;11.926;2023-06-26T07:04:57;1.90;;;1.80;;
16813;SDS011;8524;57.650;11.926;2023-06-26T07:07:27;2.15;;;1.92;;
16813;SDS011;8524;57.650;11.926;2023-06-26T07:09:57;1.98;;;1.88;;
16813;SDS011;8524;57.650;11.926;2023-06-26T07:12:24;2.35;;;2.15;;
16813;SDS011;8524;57.650;11.926;2023-06-26T07:14:52;2.28;;;2.13;;
16813;SDS011;8524;57.650;11.926;2023-06-26T07:17:19;2.40;;;2.20;;
16813;SDS011;8524;57.650;11.926;2023-06-26T07:19:46;3.20;;;2.15;;
16813;SDS011;8524;57.650;11.926;2023-06-26T07:22:13;2.50;;;2.28;;
16813;SDS011;8524;57.650;11.926;2023-06-26T07:24:40;2.63;;;2.33;;
16813;SDS011;8524;57.650;11.926;2023-06-26T07:27:09;2.85;;;2.65;;
16813;SDS011;8524;57.650;11.926;2023-06-26T07:29:36;3.33;;;3.03;;
16813;SDS011;8524;57.650;11.926;2023-06-26T07:32:03;4.53;;;3.78;;
16813;SDS011;8524;57.650;11.926;2023-06-26T07:34:31;4.72;;;3.90;;
16813;SDS011;8524;57.650;11.926;2023-06-26T07:36:58;4.15;;;3.47;;
16813;SDS011;8524;57.650;11.926;2023-06-26T07:39:25;3.55;;;3.20;;
16813;SDS011;8524;57.650;11.926;2023-06-26T07:41:52;3.42;;;3.22;;
16813;SDS011;8524;57.650;11.926;2023-06-26T07:44:21;5.65;;;3.47;;
16813;SDS011;8524;57.650;11.926;2023-06-26T07:46:48;3.95;;;3.63;;
16813;SDS011;8524;57.650;11.926;2023-06-26T07:49:15;4.43;;;3.90;;
16813;SDS011;8524;57.650;11.926;2023-06-26T07:51:42;4.30;;;3.72;;
16813;SDS011;8524;57.650;11.926;2023-06-26T07:54:09;4.63;;;3.97;;
16813;SDS011;8524;57.650;11.926;2023-06-26T07:56:52;3.90;;;3.40;;
16813;SDS011;8524;57.650;11.926;2023-06-26T07:59:22;3.72;;;3.42;;
16813;SDS011;8524;57.650;11.926;2023-06-26T08:01:50;3.65;;;3.33;;
16813;SDS011;8524;57.650;11.926;2023-06-26T08:04:18;3.88;;;3.58;;
16813;SDS011;8524;57.650;11.926;2023-06-26T08:06:47;3.15;;;2.83;;
16813;SDS011;8524;57.650;11.926;2023-06-26T08:09:15;3.03;;;2.80;;
16813;SDS011;8524;57.650;11.926;2023-06-26T08:11:42;3.88;;;3.17;;
16813;SDS011;8524;57.650;11.926;2023-06-26T08:14:09;5.07;;;3.33;;
16813;SDS011;8524;57.650;11.926;2023-06-26T08:16:38;5.75;;;3.40;;
16813;SDS011;8524;57.650;11.926;2023-06-26T08:19:05;3.88;;;3.13;;
16813;SDS011;8524;57.650;11.926;2023-06-26T08:21:33;3.75;;;3.40;;
16813;SDS011;8524;57.650;11.926;2023-06-26T08:24:00;3.85;;;3.45;;
16813;SDS011;8524;57.650;11.926;2023-06-26T08:26:27;3.15;;;2.85;;
16813;SDS011;8524;57.650;11.926;2023-06-26T08:28:54;3.78;;;3.42;;
16813;SDS011;8524;57.650;11.926;2023-06-26T08:31:21;3.17;;;2.88;;
16813;SDS011;8524;57.650;11.926;2023-06-26T08:33:50;3.55;;;3.25;;
16813;SDS011;8524;57.650;11.926;2023-06-26T08:36:17;3.80;;;3.50;;
16813;SDS011;8524;57.650;11.926;2023-06-26T08:38:47;3.70;;;3.40;;
16813;SDS011;8524;57.650;11.926;2023-06-26T08:41:14;3.63;;;3.33;;
16813;SDS011;8524;57.650;11.926;2023-06-26T08:43:41;4.47;;;4.07;;
16813;SDS011;8524;57.650;11.926;2023-06-26T08:46:08;4.03;;;3.60;;
16813;SDS011;8524;57.650;11.926;2023-06-26T08:48:35;3.90;;;3.60;;
16813;SDS011;8524;57.650;11.926;2023-06-26T08:51:05;4.05;;;3.70;;
16813;SDS011;8524;57.650;11.926;2023-06-26T08:53:38;4.88;;;4.05;;
16813;SDS011;8524;57.650;11.926;2023-06-26T08:56:09;4.03;;;3.70;;
16813;SDS011;8524;57.650;11.926;2023-06-26T08:58:41;4.75;;;3.70;;
16813;SDS011;8524;57.650;11.926;2023-06-26T09:01:08;3.55;;;3.25;;
16813;SDS011;8524;57.650;11.926;2023-06-26T09:03:36;3.78;;;3.42;;
16813;SDS011;8524;57.650;11.926;2023-06-26T09:06:05;4.28;;;3.75;;
16813;SDS011;8524;57.650;11.926;2023-06-26T09:08:32;3.80;;;3.40;;
16813;SDS011;8524;57.650;11.926;2023-06-26T09:10:59;3.63;;;2.97;;
16813;SDS011;8524;57.650;11.926;2023-06-26T09:13:28;3.33;;;3.13;;
16813;SDS011;8524;57.650;11.926;2023-06-26T09:15:56;4.65;;;3.20;;
16813;SDS011;8524;57.650;11.926;2023-06-26T09:18:23;3.45;;;3.15;;
16813;SDS011;8524;57.650;11.926;2023-06-26T09:20:51;3.10;;;2.80;;
16813;SDS011;8524;57.650;11.926;2023-06-26T09:23:19;3.90;;;2.97;;
16813;SDS011;8524;57.650;11.926;2023-06-26T09:25:48;3.30;;;3.00;;
16813;SDS011;8524;57.650;11.926;2023-06-26T09:28:17;3.20;;;2.90;;
16813;SDS011;8524;57.650;11.926;2023-06-26T09:30:44;3.30;;;3.00;;
16813;SDS011;8524;57.650;11.926;2023-06-26T09:33:15;3.38;;;3.08;;
16813;SDS011;8524;57.650;11.926;2023-06-26T09:35:43;4.45;;;3.30;;
16813;SDS011;8524;57.650;11.926;2023-06-26T09:38:11;3.92;;;3.20;;
16813;SDS011;8524;57.650;11.926;2023-06-26T09:40:40;3.13;;;2.83;;
16813;SDS011;8524;57.650;11.926;2023-06-26T09:43:07;3.55;;;3.25;;
16813;SDS011;8524;57.650;11.926;2023-06-26T09:45:35;3.05;;;2.75;;
16813;SDS011;8524;57.650;11.926;2023-06-26T09:48:03;3.58;;;3.08;;
16813;SDS011;8524;57.650;11.926;2023-06-26T09:50:32;3.58;;;3.28;;
16813;SDS011;8524;57.650;11.926;2023-06-26T09:53:04;3.30;;;3.00;;
16813;SDS011;8524;57.650;11.926;2023-06-26T09:55:34;3.42;;;3.13;;
16813;SDS011;8524;57.650;11.926;2023-06-26T09:58:03;3.22;;;2.90;;
16813;SDS011;8524;57.650;11.926;2023-06-26T10:00:31;3.40;;;3.10;;
16813;SDS011;8524;57.650;11.926;2023-06-26T10:02:59;4.72;;;2.92;;
16813;SDS011;8524;57.650;11.926;2023-06-26T10:05:26;3.53;;;3.22;;
16813;SDS011;8524;57.650;11.926;2023-06-26T10:07:53;3.50;;;3.28;;
16813;SDS011;8524;57.650;11.926;2023-06-26T10:10:22;3.15;;;2.88;;
16813;SDS011;8524;57.650;11.926;2023-06-26T10:12:51;3.10;;;2.90;;
16813;SDS011;8524;57.650;11.926;2023-06-26T10:15:26;3.55;;;3.20;;
16813;SDS011;8524;57.650;11.926;2023-06-26T10:17:55;3.47;;;2.97;;
16813;SDS011;8524;57.650;11.926;2023-06-26T10:20:23;3.75;;;3.03;;
16813;SDS011;8524;57.650;11.926;2023-06-26T10:22:51;4.80;;;2.80;;
16813;SDS011;8524;57.650;11.926;2023-06-26T10:25:21;3.05;;;2.72;;
16813;SDS011;8524;57.650;11.926;2023-06-26T10:27:52;3.13;;;2.70;;
16813;SDS011;8524;57.650;11.926;2023-06-26T10:30:25;3.30;;;2.60;;
16813;SDS011;8524;57.650;11.926;2023-06-26T10:32:55;2.95;;;2.70;;
16813;SDS011;8524;57.650;11.926;2023-06-26T10:35:23;2.80;;;2.60;;
16813;SDS011;8524;57.650;11.926;2023-06-26T10:37:51;3.03;;;2.80;;
16813;SDS011;8524;57.650;11.926;2023-06-26T10:40:26;3.05;;;2.85;;
16813;SDS011;8524;57.650;11.926;2023-06-26T10:43:05;2.83;;;2.63;;
16813;SDS011;8524;57.650;11.926;2023-06-26T10:45:35;2.92;;;2.63;;
16813;SDS011;8524;57.650;11.926;2023-06-26T10:48:03;3.65;;;2.50;;
16813;SDS011;8524;57.650;11.926;2023-06-26T10:50:31;3.50;;;2.30;;
16813;SDS011;8524;57.650;11.926;2023-06-26T10:53:14;3.05;;;2.80;;
16813;SDS011;8524;57.650;11.926;2023-06-26T10:55:49;3.15;;;2.92;;
16813;SDS011;8524;57.650;11.926;2023-06-26T10:58:28;3.60;;;3.30;;
16813;SDS011;8524;57.650;11.926;2023-06-26T11:01:18;3.83;;;2.88;;
16813;SDS011;8524;57.650;11.926;2023-06-26T11:03:55;3.70;;;3.08;;
16813;SDS011;8524;57.650;11.926;2023-06-26T11:06:28;3.53;;;3.10;;
16813;SDS011;8524;57.650;11.926;2023-06-26T11:09:00;3.17;;;2.83;;
16813;SDS011;8524;57.650;11.926;2023-06-26T11:14:29;6.72;;;3.00;;
16813;SDS011;8524;57.650;11.926;2023-06-26T11:17:01;3.85;;;2.72;;
16813;SDS011;8524;57.650;11.926;2023-06-26T11:19:29;4.22;;;3.00;;
16813;SDS011;8524;57.650;11.926;2023-06-26T11:22:01;2.90;;;2.65;;
16813;SDS011;8524;57.650;11.926;2023-06-26T11:24:30;4.63;;;2.80;;
16813;SDS011;8524;57.650;11.926;2023-06-26T11:27:00;3.88;;;2.80;;
16813;SDS011;8524;57.650;11.926;2023-06-26T11:29:31;3.17;;;2.47;;
16813;SDS011;8524;57.650;11.926;2023-06-26T11:32:01;3.60;;;3.03;;
16813;SDS011;8524;57.650;11.926;2023-06-26T11:34:30;4.72;;;3.05;;
16813;SDS011;8524;57.650;11.926;2023-06-26T11:36:58;4.65;;;2.97;;
16813;SDS011;8524;57.650;11.926;2023-06-26T11:39:28;2.70;;;2.50;;
16813;SDS011;8524;57.650;11.926;2023-06-26T11:41:56;3.47;;;3.03;;
16813;SDS011;8524;57.650;11.926;2023-06-26T11:44:23;3.45;;;2.95;;
16813;SDS011;8524;57.650;11.926;2023-06-26T11:46:53;4.07;;;3.20;;
16813;SDS011;8524;57.650;11.926;2023-06-26T11:49:24;2.85;;;2.65;;
16813;SDS011;8524;57.650;11.926;2023-06-26T11:51:52;4.63;;;3.10;;
16813;SDS011;8524;57.650;11.926;2023-06-26T11:54:26;3.88;;;3.20;;
16813;SDS011;8524;57.650;11.926;2023-06-26T11:56:54;3.03;;;2.78;;
16813;SDS011;8524;57.650;11.926;2023-06-26T11:59:23;3.22;;;2.90;;
16813;SDS011;8524;57.650;11.926;2023-06-26T12:01:50;2.55;;;2.35;;
16813;SDS011;8524;57.650;11.926;2023-06-26T12:04:19;2.95;;;2.67;;
16813;SDS011;8524;57.650;11.926;2023-06-26T12:06:50;3.25;;;2.88;;
16813;SDS011;8524;57.650;11.926;2023-06-26T12:09:22;2.90;;;2.60;;
16813;SDS011;8524;57.650;11.926;2023-06-26T12:11:51;2.75;;;2.55;;
16813;SDS011;8524;57.650;11.926;2023-06-26T12:14:20;2.80;;;2.55;;
16813;SDS011;8524;57.650;11.926;2023-06-26T12:16:48;3.03;;;2.72;;
16813;SDS011;8524;57.650;11.926;2023-06-26T12:19:15;3.30;;;3.00;;
16813;SDS011;8524;57.650;11.926;2023-06-26T12:21:46;3.10;;;2.80;;
16813;SDS011;8524;57.650;11.926;2023-06-26T12:24:18;3.55;;;2.83;;
16813;SDS011;8524;57.650;11.926;2023-06-26T12:26:48;3.33;;;3.05;;
16813;SDS011;8524;57.650;11.926;2023-06-26T12:29:19;4.93;;;3.70;;
16813;SDS011;8524;57.650;11.926;2023-06-26T12:31:48;6.20;;;2.90;;
16813;SDS011;8524;57.650;11.926;2023-06-26T12:34:19;3.55;;;2.60;;
16813;SDS011;8524;57.650;11.926;2023-06-26T12:36:47;4.45;;;2.83;;
16813;SDS011;8524;57.650;11.926;2023-06-26T12:39:17;4.07;;;3.10;;
16813;SDS011;8524;57.650;11.926;2023-06-26T12:41:46;5.35;;;3.50;;
16813;SDS011;8524;57.650;11.926;2023-06-26T12:44:20;3.97;;;3.10;;
16813;SDS011;8524;57.650;11.926;2023-06-26T12:46:48;3.28;;;2.97;;
16813;SDS011;8524;57.650;11.926;2023-06-26T12:49:19;3.60;;;3.00;;
16813;SDS011;8524;57.650;11.926;2023-06-26T12:51:47;3.20;;;3.00;;
16813;SDS011;8524;57.650;11.926;2023-06-26T12:54:16;3.25;;;2.95;;
16813;SDS011;8524;57.650;11.926;2023-06-26T12:56:43;3.78;;;3.47;;
16813;SDS011;8524;57.650;11.926;2023-06-26T12:59:10;5.35;;;3.88;;
16813;SDS011;8524;57.650;11.926;2023-06-26T13:01:37;4.95;;;3.65;;
16813;SDS011;8524;57.650;11.926;2023-06-26T13:04:05;4.20;;;3.80;;
16813;SDS011;8524;57.650;11.926;2023-06-26T13:06:33;3.47;;;3.17;;
16813;SDS011;8524;57.650;11.926;2023-06-26T13:09:01;3.60;;;3.40;;
16813;SDS011;8524;57.650;11.926;2023-06-26T13:11:29;4.50;;;4.10;;
16813;SDS011;8524;57.650;11.926;2023-06-26T13:13:57;4.57;;;4.15;;
16813;SDS011;8524;57.650;11.926;2023-06-26T13:16:24;5.00;;;4.60;;
16813;SDS011;8524;57.650;11.926;2023-06-26T13:18:51;4.88;;;4.47;;
16813;SDS011;8524;57.650;11.926;2023-06-26T13:21:18;4.35;;;3.95;;
16813;SDS011;8524;57.650;11.926;2023-06-26T13:23:45;4.40;;;3.97;;
16813;SDS011;8524;57.650;11.926;2023-06-26T13:26:14;5.00;;;4.60;;
16813;SDS011;8524;57.650;11.926;2023-06-26T13:28:41;4.47;;;4.18;;
16813;SDS011;8524;57.650;11.926;2023-06-26T13:31:08;4.68;;;4.28;;
16813;SDS011;8524;57.650;11.926;2023-06-26T13:33:35;4.90;;;4.50;;
16813;SDS011;8524;57.650;11.926;2023-06-26T13:36:02;9.98;;;5.15;;
16813;SDS011;8524;57.650;11.926;2023-06-26T13:38:30;24.83;;;8.68;;
16813;SDS011;8524;57.650;11.926;2023-06-26T13:40:59;43.40;;;10.85;;
16813;SDS011;8524;57.650;11.926;2023-06-26T13:43:28;44.05;;;11.60;;
16813;SDS011;8524;57.650;11.926;2023-06-26T13:45:55;7.95;;;3.97;;
16813;SDS011;8524;57.650;11.926;2023-06-26T13:48:23;6.38;;;3.83;;
16813;SDS011;8524;57.650;11.926;2023-06-26T13:50:52;10.73;;;3.67;;
16813;SDS011;8524;57.650;11.926;2023-06-26T13:53:21;7.70;;;3.80;;
16813;SDS011;8524;57.650;11.926;2023-06-26T13:55:48;5.68;;;3.55;;
16813;SDS011;8524;57.650;11.926;2023-06-26T13:58:15;5.17;;;3.27;;
16813;SDS011;8524;57.650;11.926;2023-06-26T14:00:45;8.57;;;3.30;;
16813;SDS011;8524;57.650;11.926;2023-06-26T14:03:12;5.80;;;3.33;;
16813;SDS011;8524;57.650;11.926;2023-06-26T14:05:39;6.63;;;3.50;;
16813;SDS011;8524;57.650;11.926;2023-06-26T14:08:07;5.87;;;3.23;;
16813;SDS011;8524;57.650;11.926;2023-06-26T14:10:35;14.27;;;3.57;;
16813;SDS011;8524;57.650;11.926;2023-06-26T14:13:03;4.70;;;3.20;;
16813;SDS011;8524;57.650;11.926;2023-06-26T14:15:30;5.37;;;3.27;;
16813;SDS011;8524;57.650;11.926;2023-06-26T14:18:00;7.23;;;3.90;;
16813;SDS011;8524;57.650;11.926;2023-06-26T14:20:29;17.93;;;4.50;;
16813;SDS011;8524;57.650;11.926;2023-06-26T14:22:57;7.83;;;4.10;;
16813;SDS011;8524;57.650;11.926;2023-06-26T14:25:25;8.23;;;4.30;;
16813;SDS011;8524;57.650;11.926;2023-06-26T14:27:54;10.77;;;4.60;;
16813;SDS011;8524;57.650;11.926;2023-06-26T14:30:21;13.05;;;5.60;;
16813;SDS011;8524;57.650;11.926;2023-06-26T14:32:48;8.03;;;4.47;;
16813;SDS011;8524;57.650;11.926;2023-06-26T14:35:16;8.57;;;4.20;;
16813;SDS011;8524;57.650;11.926;2023-06-26T14:37:43;8.07;;;4.20;;
16813;SDS011;8524;57.650;11.926;2023-06-26T14:40:11;9.10;;;4.43;;
16813;SDS011;8524;57.650;11.926;2023-06-26T14:42:39;9.77;;;4.57;;
16813;SDS011;8524;57.650;11.926;2023-06-26T14:45:08;10.70;;;4.40;;
16813;SDS011;8524;57.650;11.926;2023-06-26T14:47:36;9.07;;;4.60;;
16813;SDS011;8524;57.650;11.926;2023-06-26T14:50:03;9.83;;;3.97;;
16813;SDS011;8524;57.650;11.926;2023-06-26T14:52:33;7.83;;;4.30;;
16813;SDS011;8524;57.650;11.926;2023-06-26T14:55:00;7.77;;;4.20;;
16813;SDS011;8524;57.650;11.926;2023-06-26T14:57:27;10.57;;;4.43;;